sensor_id;sensor_type;location;lat;lon;timestamp;temperature;humidity
1137;DHT22;557;48.466;7.950;2023-05-24T00:01:28;14.00;1.00
1137;DHT22;557;48.466;7.950;2023-05-24T00:04:16;14.00;1.00
1137;DHT22;557;48.466;7.950;2023-05-24T00:07:03;14.00;1.00
1137;DHT22;557;48.466;7.950;2023-05-24T00:09:51;13.90;99.90
1137;DHT22;557;48.466;7.950;2023-05-24T00:12:39;13.90;63.90
1137;DHT22;557;48.466;7.950;2023-05-24T00:15:26;13.90;99.90
1137;DHT22;557;48.466;7.950;2023-05-24T00:18:15;13.90;99.90
1137;DHT22;557;48.466;7.950;2023-05-24T00:21:03;13.90;99.90
1137;DHT22;557;48.466;7.950;2023-05-24T00:23:50;13.90;1.00
1137;DHT22;557;48.466;7.950;2023-05-24T00:26:38;13.90;99.90
1137;DHT22;557;48.466;7.950;2023-05-24T00:29:25;13.80;99.90
1137;DHT22;557;48.466;7.950;2023-05-24T00:32:12;13.80;99.90
1137;DHT22;557;48.466;7.950;2023-05-24T00:35:01;13.80;99.90
1137;DHT22;557;48.466;7.950;2023-05-24T00:37:48;13.70;99.90
1137;DHT22;557;48.466;7.950;2023-05-24T00:40:36;13.70;99.90
1137;DHT22;557;48.466;7.950;2023-05-24T00:43:23;13.70;99.90
1137;DHT22;557;48.466;7.950;2023-05-24T00:46:17;13.70;99.90
1137;DHT22;557;48.466;7.950;2023-05-24T00:49:08;13.70;99.90
1137;DHT22;557;48.466;7.950;2023-05-24T00:51:58;13.70;99.90
1137;DHT22;557;48.466;7.950;2023-05-24T00:54:45;13.70;1.00
1137;DHT22;557;48.466;7.950;2023-05-24T00:57:33;13.70;1.00
1137;DHT22;557;48.466;7.950;2023-05-24T01:00:22;13.60;99.90
1137;DHT22;557;48.466;7.950;2023-05-24T01:03:09;13.60;1.00
1137;DHT22;557;48.466;7.950;2023-05-24T01:05:57;13.70;99.90
1137;DHT22;557;48.466;7.950;2023-05-24T01:09:08;13.60;1.00
1137;DHT22;557;48.466;7.950;2023-05-24T01:12:06;13.60;99.90
1137;DHT22;557;48.466;7.950;2023-05-24T01:15:06;13.60;99.90
1137;DHT22;557;48.466;7.950;2023-05-24T01:18:01;13.60;99.90
1137;DHT22;557;48.466;7.950;2023-05-24T01:20:59;13.60;1.00
1137;DHT22;557;48.466;7.950;2023-05-24T01:23:56;13.60;1.00
1137;DHT22;557;48.466;7.950;2023-05-24T01:27:05;13.50;96.10
1137;DHT22;557;48.466;7.950;2023-05-24T01:29:53;13.50;61.40
1137;DHT22;557;48.466;7.950;2023-05-24T01:32:41;13.50;1.00
1137;DHT22;557;48.466;7.950;2023-05-24T01:35:28;13.50;99.90
1137;DHT22;557;48.466;7.950;2023-05-24T01:38:18;13.40;1.00
1137;DHT22;557;48.466;7.950;2023-05-24T01:41:14;13.40;1.00
1137;DHT22;557;48.466;7.950;2023-05-24T01:44:11;13.40;1.00
1137;DHT22;557;48.466;7.950;2023-05-24T01:47:03;13.30;99.90
1137;DHT22;557;48.466;7.950;2023-05-24T01:49:55;13.20;1.00
1137;DHT22;557;48.466;7.950;2023-05-24T01:52:46;13.20;99.90
1137;DHT22;557;48.466;7.950;2023-05-24T01:55:37;13.10;99.90
1137;DHT22;557;48.466;7.950;2023-05-24T01:58:25;13.10;99.90
1137;DHT22;557;48.466;7.950;2023-05-24T02:01:14;13.00;1.00
1137;DHT22;557;48.466;7.950;2023-05-24T02:04:02;13.00;99.90
1137;DHT22;557;48.466;7.950;2023-05-24T02:06:50;12.90;1.00
1137;DHT22;557;48.466;7.950;2023-05-24T02:09:37;12.90;1.00
1137;DHT22;557;48.466;7.950;2023-05-24T02:12:24;12.90;1.00
1137;DHT22;557;48.466;7.950;2023-05-24T02:15:11;12.90;1.00
1137;DHT22;557;48.466;7.950;2023-05-24T02:18:01;12.80;1.00
1137;DHT22;557;48.466;7.950;2023-05-24T02:20:48;12.80;1.00
1137;DHT22;557;48.466;7.950;2023-05-24T02:23:36;12.80;1.00
1137;DHT22;557;48.466;7.950;2023-05-24T02:26:23;12.80;1.00
1137;DHT22;557;48.466;7.950;2023-05-24T02:29:10;12.80;1.00
1137;DHT22;557;48.466;7.950;2023-05-24T02:31:58;12.80;1.00
1137;DHT22;557;48.466;7.950;2023-05-24T02:34:49;12.80;30.50
1137;DHT22;557;48.466;7.950;2023-05-24T02:37:37;12.80;1.00
1137;DHT22;557;48.466;7.950;2023-05-24T02:40:24;12.80;19.40
1137;DHT22;557;48.466;7.950;2023-05-24T02:43:13;12.80;1.00
1137;DHT22;557;48.466;7.950;2023-05-24T02:46:00;12.70;9.60
1137;DHT22;557;48.466;7.950;2023-05-24T02:48:47;12.70;99.90
1137;DHT22;557;48.466;7.950;2023-05-24T02:51:37;12.70;99.90
1137;DHT22;557;48.466;7.950;2023-05-24T02:54:24;12.70;49.70
1137;DHT22;557;48.466;7.950;2023-05-24T02:57:11;12.70;99.90
1137;DHT22;557;48.466;7.950;2023-05-24T02:59:58;12.60;99.90
1137;DHT22;557;48.466;7.950;2023-05-24T03:02:46;12.60;99.90
1137;DHT22;557;48.466;7.950;2023-05-24T03:05:35;12.60;99.90
1137;DHT22;557;48.466;7.950;2023-05-24T03:08:24;12.60;99.90
1137;DHT22;557;48.466;7.950;2023-05-24T03:11:11;12.60;99.90
1137;DHT22;557;48.466;7.950;2023-05-24T03:13:58;12.50;99.90
1137;DHT22;557;48.466;7.950;2023-05-24T03:16:46;12.40;99.90
1137;DHT22;557;48.466;7.950;2023-05-24T03:19:33;12.40;99.90
1137;DHT22;557;48.466;7.950;2023-05-24T03:22:20;12.40;99.90
1137;DHT22;557;48.466;7.950;2023-05-24T03:25:09;12.40;99.90
1137;DHT22;557;48.466;7.950;2023-05-24T03:27:56;12.40;99.90
1137;DHT22;557;48.466;7.950;2023-05-24T03:30:44;12.40;99.90
1137;DHT22;557;48.466;7.950;2023-05-24T03:33:31;12.40;1.00
1137;DHT22;557;48.466;7.950;2023-05-24T03:36:19;12.40;1.00
1137;DHT22;557;48.466;7.950;2023-05-24T03:39:07;12.40;1.00
1137;DHT22;557;48.466;7.950;2023-05-24T03:41:56;12.40;1.00
1137;DHT22;557;48.466;7.950;2023-05-24T03:44:43;12.40;1.00
1137;DHT22;557;48.466;7.950;2023-05-24T03:47:30;12.40;1.00
1137;DHT22;557;48.466;7.950;2023-05-24T03:50:17;12.40;1.00
1137;DHT22;557;48.466;7.950;2023-05-24T03:53:05;12.30;1.00
1137;DHT22;557;48.466;7.950;2023-05-24T03:55:53;12.40;99.90
1137;DHT22;557;48.466;7.950;2023-05-24T03:58:42;12.40;1.00
1137;DHT22;557;48.466;7.950;2023-05-24T04:01:29;12.30;1.00
1137;DHT22;557;48.466;7.950;2023-05-24T04:04:16;12.40;99.90
1137;DHT22;557;48.466;7.950;2023-05-24T04:07:04;12.30;1.00
1137;DHT22;557;48.466;7.950;2023-05-24T04:09:52;12.30;99.90
1137;DHT22;557;48.466;7.950;2023-05-24T04:12:40;12.20;1.00
1137;DHT22;557;48.466;7.950;2023-05-24T04:15:28;12.20;1.00
1137;DHT22;557;48.466;7.950;2023-05-24T04:18:16;12.20;1.00
1137;DHT22;557;48.466;7.950;2023-05-24T04:21:03;12.20;1.00
1137;DHT22;557;48.466;7.950;2023-05-24T04:23:50;12.20;1.00
1137;DHT22;557;48.466;7.950;2023-05-24T04:26:38;12.20;99.90
1137;DHT22;557;48.466;7.950;2023-05-24T04:29:25;12.20;1.00
1137;DHT22;557;48.466;7.950;2023-05-24T04:32:14;12.20;1.00
1137;DHT22;557;48.466;7.950;2023-05-24T04:35:03;12.20;99.90
1137;DHT22;557;48.466;7.950;2023-05-24T04:37:50;12.20;99.90
1137;DHT22;557;48.466;7.950;2023-05-24T04:40:37;12.30;99.90
1137;DHT22;557;48.466;7.950;2023-05-24T04:43:25;12.30;99.90
1137;DHT22;557;48.466;7.950;2023-05-24T04:46:12;12.30;99.90
1137;DHT22;557;48.466;7.950;2023-05-24T04:49:01;12.40;99.90
1137;DHT22;557;48.466;7.950;2023-05-24T04:51:50;12.40;99.90
1137;DHT22;557;48.466;7.950;2023-05-24T04:54:37;12.40;99.90
1137;DHT22;557;48.466;7.950;2023-05-24T04:57:24;12.40;99.90
1137;DHT22;557;48.466;7.950;2023-05-24T05:00:12;12.40;99.90
1137;DHT22;557;48.466;7.950;2023-05-24T05:03:00;12.40;99.90
1137;DHT22;557;48.466;7.950;2023-05-24T05:05:50;12.40;99.90
1137;DHT22;557;48.466;7.950;2023-05-24T05:08:37;12.50;99.90
1137;DHT22;557;48.466;7.950;2023-05-24T05:11:24;12.50;99.90
1137;DHT22;557;48.466;7.950;2023-05-24T05:14:12;12.60;99.90
1137;DHT22;557;48.466;7.950;2023-05-24T05:17:00;12.70;99.90
1137;DHT22;557;48.466;7.950;2023-05-24T05:19:47;12.70;52.10
1137;DHT22;557;48.466;7.950;2023-05-24T05:22:35;12.80;99.90
1137;DHT22;557;48.466;7.950;2023-05-24T05:25:23;12.90;71.60
1137;DHT22;557;48.466;7.950;2023-05-24T05:28:10;12.90;99.90
1137;DHT22;557;48.466;7.950;2023-05-24T05:30:57;12.90;99.90
1137;DHT22;557;48.466;7.950;2023-05-24T05:33:45;12.90;1.00
1137;DHT22;557;48.466;7.950;2023-05-24T05:36:32;12.90;1.00
1137;DHT22;557;48.466;7.950;2023-05-24T05:39:23;13.00;99.90
1137;DHT22;557;48.466;7.950;2023-05-24T05:42:10;12.90;1.00
1137;DHT22;557;48.466;7.950;2023-05-24T05:44:57;12.90;99.90
1137;DHT22;557;48.466;7.950;2023-05-24T05:47:45;12.90;1.00
1137;DHT22;557;48.466;7.950;2023-05-24T05:50:32;12.90;1.00
1137;DHT22;557;48.466;7.950;2023-05-24T05:53:19;13.00;99.90
1137;DHT22;557;48.466;7.950;2023-05-24T05:56:08;13.10;1.00
1137;DHT22;557;48.466;7.950;2023-05-24T05:58:55;13.20;99.90
1137;DHT22;557;48.466;7.950;2023-05-24T06:01:43;13.20;1.00
1137;DHT22;557;48.466;7.950;2023-05-24T06:04:32;13.30;1.00
1137;DHT22;557;48.466;7.950;2023-05-24T06:07:19;13.30;99.90
1137;DHT22;557;48.466;7.950;2023-05-24T06:10:07;13.40;99.90
1137;DHT22;557;48.466;7.950;2023-05-24T06:12:56;13.50;15.10
1137;DHT22;557;48.466;7.950;2023-05-24T06:15:43;13.50;1.00
1137;DHT22;557;48.466;7.950;2023-05-24T06:18:30;13.50;1.00
1137;DHT22;557;48.466;7.950;2023-05-24T06:21:19;13.50;99.90
1137;DHT22;557;48.466;7.950;2023-05-24T06:24:06;13.40;1.00
1137;DHT22;557;48.466;7.950;2023-05-24T06:26:54;13.40;34.40
1137;DHT22;557;48.466;7.950;2023-05-24T06:29:43;13.30;99.90
1137;DHT22;557;48.466;7.950;2023-05-24T06:32:30;13.30;99.90
1137;DHT22;557;48.466;7.950;2023-05-24T06:35:17;13.40;99.90
1137;DHT22;557;48.466;7.950;2023-05-24T06:38:05;13.30;99.90
1137;DHT22;557;48.466;7.950;2023-05-24T06:40:52;13.40;1.00
1137;DHT22;557;48.466;7.950;2023-05-24T06:43:39;13.40;1.00
1137;DHT22;557;48.466;7.950;2023-05-24T06:46:28;13.40;99.90
1137;DHT22;557;48.466;7.950;2023-05-24T06:49:16;13.40;99.90
1137;DHT22;557;48.466;7.950;2023-05-24T06:52:03;13.40;67.90
1137;DHT22;557;48.466;7.950;2023-05-24T06:54:52;13.40;1.00
1137;DHT22;557;48.466;7.950;2023-05-24T06:57:39;13.40;1.00
1137;DHT22;557;48.466;7.950;2023-05-24T07:00:27;13.50;1.00
1137;DHT22;557;48.466;7.950;2023-05-24T07:03:16;13.50;1.00
1137;DHT22;557;48.466;7.950;2023-05-24T07:06:03;13.60;1.00
1137;DHT22;557;48.466;7.950;2023-05-24T07:08:54;13.60;99.90
1137;DHT22;557;48.466;7.950;2023-05-24T07:11:42;13.80;99.90
1137;DHT22;557;48.466;7.950;2023-05-24T07:14:29;13.90;99.90
1137;DHT22;557;48.466;7.950;2023-05-24T07:17:16;14.00;39.10
1137;DHT22;557;48.466;7.950;2023-05-24T07:20:06;14.10;99.90
1137;DHT22;557;48.466;7.950;2023-05-24T07:22:55;14.10;18.50
1137;DHT22;557;48.466;7.950;2023-05-24T07:25:48;14.10;1.00
1137;DHT22;557;48.466;7.950;2023-05-24T07:28:38;14.00;99.90
1137;DHT22;557;48.466;7.950;2023-05-24T07:31:26;14.00;99.90
1137;DHT22;557;48.466;7.950;2023-05-24T07:34:17;14.10;1.00
1137;DHT22;557;48.466;7.950;2023-05-24T07:37:07;14.10;1.00
1137;DHT22;557;48.466;7.950;2023-05-24T07:39:54;14.20;99.90
1137;DHT22;557;48.466;7.950;2023-05-24T07:42:42;14.20;99.90
1137;DHT22;557;48.466;7.950;2023-05-24T07:45:29;14.30;99.90
1137;DHT22;557;48.466;7.950;2023-05-24T07:48:17;14.40;1.00
1137;DHT22;557;48.466;7.950;2023-05-24T07:51:04;14.40;1.00
1137;DHT22;557;48.466;7.950;2023-05-24T07:53:57;14.40;99.90
1137;DHT22;557;48.466;7.950;2023-05-24T07:56:44;14.20;99.90
1137;DHT22;557;48.466;7.950;2023-05-24T07:59:32;14.20;99.90
1137;DHT22;557;48.466;7.950;2023-05-24T08:02:19;14.20;99.90
1137;DHT22;557;48.466;7.950;2023-05-24T08:05:08;14.20;1.00
1137;DHT22;557;48.466;7.950;2023-05-24T08:07:56;14.30;99.90
1137;DHT22;557;48.466;7.950;2023-05-24T08:10:45;14.30;99.90
1137;DHT22;557;48.466;7.950;2023-05-24T08:13:32;14.30;99.90
1137;DHT22;557;48.466;7.950;2023-05-24T08:16:20;14.30;1.00
1137;DHT22;557;48.466;7.950;2023-05-24T08:19:07;14.30;99.90
1137;DHT22;557;48.466;7.950;2023-05-24T08:21:55;14.30;99.90
1137;DHT22;557;48.466;7.950;2023-05-24T08:24:49;14.30;1.00
1137;DHT22;557;48.466;7.950;2023-05-24T08:27:38;14.20;99.90
1137;DHT22;557;48.466;7.950;2023-05-24T08:30:25;14.00;1.00
1137;DHT22;557;48.466;7.950;2023-05-24T08:33:13;14.00;99.90
1137;DHT22;557;48.466;7.950;2023-05-24T08:36:00;14.10;1.00
1137;DHT22;557;48.466;7.950;2023-05-24T08:38:47;14.30;99.90
1137;DHT22;557;48.466;7.950;2023-05-24T08:41:34;14.50;99.90
1137;DHT22;557;48.466;7.950;2023-05-24T08:44:26;14.70;99.90
1137;DHT22;557;48.466;7.950;2023-05-24T08:47:15;14.70;99.90
1137;DHT22;557;48.466;7.950;2023-05-24T08:50:04;14.70;99.90
1137;DHT22;557;48.466;7.950;2023-05-24T08:52:54;14.60;99.90
1137;DHT22;557;48.466;7.950;2023-05-24T08:55:44;14.90;99.90
1137;DHT22;557;48.466;7.950;2023-05-24T08:58:31;15.20;3.00
1137;DHT22;557;48.466;7.950;2023-05-24T09:01:23;15.50;1.00
1137;DHT22;557;48.466;7.950;2023-05-24T09:04:12;15.80;1.00
1137;DHT22;557;48.466;7.950;2023-05-24T09:06:59;16.00;1.00
1137;DHT22;557;48.466;7.950;2023-05-24T09:09:52;16.10;1.00
1137;DHT22;557;48.466;7.950;2023-05-24T09:12:43;16.40;99.90
1137;DHT22;557;48.466;7.950;2023-05-24T09:15:33;16.60;99.90
1137;DHT22;557;48.466;7.950;2023-05-24T09:18:22;17.10;99.90
1137;DHT22;557;48.466;7.950;2023-05-24T09:21:09;17.30;99.90
1137;DHT22;557;48.466;7.950;2023-05-24T09:23:57;17.30;99.90
1137;DHT22;557;48.466;7.950;2023-05-24T09:26:48;17.20;99.90
1137;DHT22;557;48.466;7.950;2023-05-24T09:29:36;17.20;99.90
1137;DHT22;557;48.466;7.950;2023-05-24T09:32:23;17.10;99.90
1137;DHT22;557;48.466;7.950;2023-05-24T09:35:12;17.10;99.90
1137;DHT22;557;48.466;7.950;2023-05-24T09:37:59;17.30;99.90
1137;DHT22;557;48.466;7.950;2023-05-24T09:40:47;17.20;99.90
1137;DHT22;557;48.466;7.950;2023-05-24T09:43:47;17.00;99.90
1137;DHT22;557;48.466;7.950;2023-05-24T09:46:35;17.00;99.90
1137;DHT22;557;48.466;7.950;2023-05-24T09:49:23;17.10;99.90
1137;DHT22;557;48.466;7.950;2023-05-24T09:52:15;17.30;99.90
1137;DHT22;557;48.466;7.950;2023-05-24T09:55:10;17.60;99.90
1137;DHT22;557;48.466;7.950;2023-05-24T09:58:02;17.60;99.90
1137;DHT22;557;48.466;7.950;2023-05-24T10:00:49;17.90;99.90
1137;DHT22;557;48.466;7.950;2023-05-24T10:03:37;18.20;99.90
1137;DHT22;557;48.466;7.950;2023-05-24T10:06:24;18.30;99.90
1137;DHT22;557;48.466;7.950;2023-05-24T10:09:13;18.50;99.90
1137;DHT22;557;48.466;7.950;2023-05-24T10:12:02;18.50;99.90
1137;DHT22;557;48.466;7.950;2023-05-24T10:14:51;18.30;99.90
1137;DHT22;557;48.466;7.950;2023-05-24T10:17:40;18.20;99.90
1137;DHT22;557;48.466;7.950;2023-05-24T10:20:27;18.00;99.90
1137;DHT22;557;48.466;7.950;2023-05-24T10:23:19;17.60;99.90
1137;DHT22;557;48.466;7.950;2023-05-24T10:26:09;17.70;99.90
1137;DHT22;557;48.466;7.950;2023-05-24T10:29:07;17.90;99.90
1137;DHT22;557;48.466;7.950;2023-05-24T10:31:57;18.00;99.90
1137;DHT22;557;48.466;7.950;2023-05-24T10:34:45;18.30;99.90
1137;DHT22;557;48.466;7.950;2023-05-24T10:37:34;18.20;99.90
1137;DHT22;557;48.466;7.950;2023-05-24T10:40:22;17.90;99.90
1137;DHT22;557;48.466;7.950;2023-05-24T10:43:12;17.60;99.90
1137;DHT22;557;48.466;7.950;2023-05-24T10:46:02;17.40;99.90
1137;DHT22;557;48.466;7.950;2023-05-24T10:49:07;17.30;99.90
1137;DHT22;557;48.466;7.950;2023-05-24T10:52:00;17.20;99.90
1137;DHT22;557;48.466;7.950;2023-05-24T10:55:04;16.90;99.90
1137;DHT22;557;48.466;7.950;2023-05-24T10:57:54;16.90;99.90
1137;DHT22;557;48.466;7.950;2023-05-24T11:00:43;16.90;99.90
1137;DHT22;557;48.466;7.950;2023-05-24T11:03:32;17.00;99.90
1137;DHT22;557;48.466;7.950;2023-05-24T11:06:45;16.90;99.90
1137;DHT22;557;48.466;7.950;2023-05-24T11:09:35;17.00;99.90
1137;DHT22;557;48.466;7.950;2023-05-24T11:12:22;17.00;99.90
1137;DHT22;557;48.466;7.950;2023-05-24T11:15:22;17.20;99.90
1137;DHT22;557;48.466;7.950;2023-05-24T11:18:14;17.90;99.90
1137;DHT22;557;48.466;7.950;2023-05-24T11:21:02;18.90;99.90
1137;DHT22;557;48.466;7.950;2023-05-24T11:23:49;19.20;99.90
1137;DHT22;557;48.466;7.950;2023-05-24T11:26:36;19.00;99.90
1137;DHT22;557;48.466;7.950;2023-05-24T11:29:24;19.30;99.90
1137;DHT22;557;48.466;7.950;2023-05-24T11:32:14;18.90;96.20
1137;DHT22;557;48.466;7.950;2023-05-24T11:35:04;18.90;99.90
1137;DHT22;557;48.466;7.950;2023-05-24T11:37:53;19.10;99.90
1137;DHT22;557;48.466;7.950;2023-05-24T11:40:42;19.30;99.90
1137;DHT22;557;48.466;7.950;2023-05-24T11:43:30;20.40;99.90
1137;DHT22;557;48.466;7.950;2023-05-24T11:46:18;21.80;99.90
1137;DHT22;557;48.466;7.950;2023-05-24T11:49:06;22.30;91.70
1137;DHT22;557;48.466;7.950;2023-05-24T11:51:56;22.40;84.10
1137;DHT22;557;48.466;7.950;2023-05-24T11:54:43;22.80;73.10
1137;DHT22;557;48.466;7.950;2023-05-24T11:57:36;22.60;67.20
1137;DHT22;557;48.466;7.950;2023-05-24T12:00:25;22.70;56.80
1137;DHT22;557;48.466;7.950;2023-05-24T12:03:12;22.60;48.10
1137;DHT22;557;48.466;7.950;2023-05-24T12:05:59;22.90;43.40
1137;DHT22;557;48.466;7.950;2023-05-24T12:08:48;23.10;41.40
1137;DHT22;557;48.466;7.950;2023-05-24T12:11:39;23.10;48.70
1137;DHT22;557;48.466;7.950;2023-05-24T12:14:27;23.60;49.80
1137;DHT22;557;48.466;7.950;2023-05-24T12:17:15;24.40;49.30
1137;DHT22;557;48.466;7.950;2023-05-24T12:20:04;24.70;44.60
1137;DHT22;557;48.466;7.950;2023-05-24T12:22:52;24.50;34.80
1137;DHT22;557;48.466;7.950;2023-05-24T12:25:41;24.40;30.00
1137;DHT22;557;48.466;7.950;2023-05-24T12:28:32;25.00;32.00
1137;DHT22;557;48.466;7.950;2023-05-24T12:31:21;24.90;26.60
1137;DHT22;557;48.466;7.950;2023-05-24T12:34:11;25.30;28.70
1137;DHT22;557;48.466;7.950;2023-05-24T12:36:58;25.70;27.80
1137;DHT22;557;48.466;7.950;2023-05-24T12:39:46;25.30;20.60
1137;DHT22;557;48.466;7.950;2023-05-24T12:42:34;25.20;16.90
1137;DHT22;557;48.466;7.950;2023-05-24T12:45:23;24.70;12.50
1137;DHT22;557;48.466;7.950;2023-05-24T12:48:12;24.90;10.60
1137;DHT22;557;48.466;7.950;2023-05-24T12:51:00;24.60;6.90
1137;DHT22;557;48.466;7.950;2023-05-24T12:53:54;24.20;3.40
1137;DHT22;557;48.466;7.950;2023-05-24T12:56:42;24.40;2.20
1137;DHT22;557;48.466;7.950;2023-05-24T12:59:31;24.30;7.60
1137;DHT22;557;48.466;7.950;2023-05-24T13:02:19;24.30;1.00
1137;DHT22;557;48.466;7.950;2023-05-24T13:05:07;24.30;1.00
1137;DHT22;557;48.466;7.950;2023-05-24T13:07:55;24.50;1.00
1137;DHT22;557;48.466;7.950;2023-05-24T13:10:43;24.50;1.00
1137;DHT22;557;48.466;7.950;2023-05-24T13:13:30;24.20;1.00
1137;DHT22;557;48.466;7.950;2023-05-24T13:16:19;24.20;1.00
1137;DHT22;557;48.466;7.950;2023-05-24T13:19:06;24.50;1.00
1137;DHT22;557;48.466;7.950;2023-05-24T13:21:53;24.60;1.00
1137;DHT22;557;48.466;7.950;2023-05-24T13:24:41;24.60;1.00
1137;DHT22;557;48.466;7.950;2023-05-24T13:27:28;24.50;1.00
1137;DHT22;557;48.466;7.950;2023-05-24T13:30:16;24.60;1.00
1137;DHT22;557;48.466;7.950;2023-05-24T13:33:05;24.60;1.00
1137;DHT22;557;48.466;7.950;2023-05-24T13:35:52;24.40;1.00
1137;DHT22;557;48.466;7.950;2023-05-24T13:38:40;24.30;1.00
1137;DHT22;557;48.466;7.950;2023-05-24T13:41:27;24.30;1.00
1137;DHT22;557;48.466;7.950;2023-05-24T13:44:15;24.20;1.00
1137;DHT22;557;48.466;7.950;2023-05-24T13:47:02;24.10;1.00
1137;DHT22;557;48.466;7.950;2023-05-24T13:49:51;23.80;1.00
1137;DHT22;557;48.466;7.950;2023-05-24T13:52:38;23.60;1.00
1137;DHT22;557;48.466;7.950;2023-05-24T13:55:25;23.60;1.00
1137;DHT22;557;48.466;7.950;2023-05-24T13:58:13;23.50;1.00
1137;DHT22;557;48.466;7.950;2023-05-24T14:01:01;23.20;1.00
1137;DHT22;557;48.466;7.950;2023-05-24T14:03:48;23.50;1.00
1137;DHT22;557;48.466;7.950;2023-05-24T14:06:37;23.70;1.00
1137;DHT22;557;48.466;7.950;2023-05-24T14:09:24;23.90;1.00
1137;DHT22;557;48.466;7.950;2023-05-24T14:12:12;23.80;1.00
1137;DHT22;557;48.466;7.950;2023-05-24T14:14:59;23.60;1.00
1137;DHT22;557;48.466;7.950;2023-05-24T14:17:48;23.60;1.00
1137;DHT22;557;48.466;7.950;2023-05-24T14:20:36;24.10;1.00
1137;DHT22;557;48.466;7.950;2023-05-24T14:23:26;24.90;1.00
1137;DHT22;557;48.466;7.950;2023-05-24T14:26:17;25.40;1.00
1137;DHT22;557;48.466;7.950;2023-05-24T14:29:04;25.10;1.00
1137;DHT22;557;48.466;7.950;2023-05-24T14:35:28;25.40;1.00
1137;DHT22;557;48.466;7.950;2023-05-24T14:38:22;25.80;1.00
1137;DHT22;557;48.466;7.950;2023-05-24T14:41:11;25.60;1.00
1137;DHT22;557;48.466;7.950;2023-05-24T14:44:00;25.40;1.00
1137;DHT22;557;48.466;7.950;2023-05-24T14:46:47;25.50;1.00
1137;DHT22;557;48.466;7.950;2023-05-24T14:49:34;25.50;1.00
1137;DHT22;557;48.466;7.950;2023-05-24T14:52:22;25.80;1.00
1137;DHT22;557;48.466;7.950;2023-05-24T14:55:09;25.80;1.00
1137;DHT22;557;48.466;7.950;2023-05-24T14:57:57;25.80;1.00
1137;DHT22;557;48.466;7.950;2023-05-24T15:00:45;25.70;1.00
1137;DHT22;557;48.466;7.950;2023-05-24T15:03:32;25.60;1.00
1137;DHT22;557;48.466;7.950;2023-05-24T15:06:20;25.70;1.00
1137;DHT22;557;48.466;7.950;2023-05-24T15:09:07;26.00;1.00
1137;DHT22;557;48.466;7.950;2023-05-24T15:11:54;26.00;1.00
1137;DHT22;557;48.466;7.950;2023-05-24T15:14:43;25.90;1.00
1137;DHT22;557;48.466;7.950;2023-05-24T15:17:30;26.00;1.00
1137;DHT22;557;48.466;7.950;2023-05-24T15:20:18;26.20;1.00
1137;DHT22;557;48.466;7.950;2023-05-24T15:23:05;26.10;1.00
1137;DHT22;557;48.466;7.950;2023-05-24T15:25:55;26.30;1.00
1137;DHT22;557;48.466;7.950;2023-05-24T15:28:42;26.40;1.00
1137;DHT22;557;48.466;7.950;2023-05-24T15:31:32;26.70;1.00
1137;DHT22;557;48.466;7.950;2023-05-24T15:34:19;27.00;1.00
1137;DHT22;557;48.466;7.950;2023-05-24T15:37:06;27.60;1.00
1137;DHT22;557;48.466;7.950;2023-05-24T15:39:54;27.90;1.00
1137;DHT22;557;48.466;7.950;2023-05-24T15:42:41;27.80;1.00
1137;DHT22;557;48.466;7.950;2023-05-24T15:45:30;27.90;1.00
1137;DHT22;557;48.466;7.950;2023-05-24T15:48:18;28.70;1.00
1137;DHT22;557;48.466;7.950;2023-05-24T15:51:05;29.80;1.00
1137;DHT22;557;48.466;7.950;2023-05-24T15:53:53;30.10;1.00
1137;DHT22;557;48.466;7.950;2023-05-24T15:56:41;29.50;1.00
1137;DHT22;557;48.466;7.950;2023-05-24T15:59:28;29.70;1.00
1137;DHT22;557;48.466;7.950;2023-05-24T16:02:15;29.00;1.00
1137;DHT22;557;48.466;7.950;2023-05-24T16:05:04;28.90;1.00
1137;DHT22;557;48.466;7.950;2023-05-24T16:07:52;29.20;1.00
1137;DHT22;557;48.466;7.950;2023-05-24T16:10:39;28.80;1.00
1137;DHT22;557;48.466;7.950;2023-05-24T16:13:26;28.80;1.00
1137;DHT22;557;48.466;7.950;2023-05-24T16:16:14;29.00;1.00
1137;DHT22;557;48.466;7.950;2023-05-24T16:19:01;27.30;1.00
1137;DHT22;557;48.466;7.950;2023-05-24T16:21:49;26.20;1.00
1137;DHT22;557;48.466;7.950;2023-05-24T16:24:37;24.10;1.00
1137;DHT22;557;48.466;7.950;2023-05-24T16:27:24;22.90;1.00
1137;DHT22;557;48.466;7.950;2023-05-24T16:30:12;22.30;1.00
1137;DHT22;557;48.466;7.950;2023-05-24T16:32:59;22.20;1.00
1137;DHT22;557;48.466;7.950;2023-05-24T16:35:46;21.70;1.00
1137;DHT22;557;48.466;7.950;2023-05-24T16:38:41;20.90;1.00
1137;DHT22;557;48.466;7.950;2023-05-24T16:41:28;20.30;1.00
1137;DHT22;557;48.466;7.950;2023-05-24T16:44:22;19.90;1.00
1137;DHT22;557;48.466;7.950;2023-05-24T16:47:09;19.70;1.00
1137;DHT22;557;48.466;7.950;2023-05-24T16:49:56;19.90;1.00
1137;DHT22;557;48.466;7.950;2023-05-24T16:52:44;19.80;1.00
1137;DHT22;557;48.466;7.950;2023-05-24T16:55:33;19.70;1.00
1137;DHT22;557;48.466;7.950;2023-05-24T16:58:21;19.70;1.00
1137;DHT22;557;48.466;7.950;2023-05-24T17:01:09;19.70;1.00
1137;DHT22;557;48.466;7.950;2023-05-24T17:03:56;19.80;1.00
1137;DHT22;557;48.466;7.950;2023-05-24T17:06:43;19.70;1.00
1137;DHT22;557;48.466;7.950;2023-05-24T17:09:30;19.60;1.00
1137;DHT22;557;48.466;7.950;2023-05-24T17:12:19;19.50;1.00
1137;DHT22;557;48.466;7.950;2023-05-24T17:15:07;19.20;1.00
1137;DHT22;557;48.466;7.950;2023-05-24T17:17:55;19.10;1.00
1137;DHT22;557;48.466;7.950;2023-05-24T17:20:42;19.10;1.00
1137;DHT22;557;48.466;7.950;2023-05-24T17:23:31;18.90;1.00
1137;DHT22;557;48.466;7.950;2023-05-24T17:26:18;18.70;1.00
1137;DHT22;557;48.466;7.950;2023-05-24T17:29:07;18.50;1.00
1137;DHT22;557;48.466;7.950;2023-05-24T17:31:55;18.20;1.00
1137;DHT22;557;48.466;7.950;2023-05-24T17:34:42;18.00;1.00
1137;DHT22;557;48.466;7.950;2023-05-24T17:37:29;18.00;1.00
1137;DHT22;557;48.466;7.950;2023-05-24T17:40:17;18.00;1.00
1137;DHT22;557;48.466;7.950;2023-05-24T17:43:04;17.90;1.00
1137;DHT22;557;48.466;7.950;2023-05-24T17:45:54;17.80;1.00
1137;DHT22;557;48.466;7.950;2023-05-24T17:48:47;17.80;1.00
1137;DHT22;557;48.466;7.950;2023-05-24T17:51:36;17.60;1.00
1137;DHT22;557;48.466;7.950;2023-05-24T17:54:24;17.50;1.00
1137;DHT22;557;48.466;7.950;2023-05-24T17:57:11;17.50;1.00
1137;DHT22;557;48.466;7.950;2023-05-24T17:59:58;17.30;1.00
1137;DHT22;557;48.466;7.950;2023-05-24T18:02:47;17.10;1.00
1137;DHT22;557;48.466;7.950;2023-05-24T18:05:34;16.90;1.00
1137;DHT22;557;48.466;7.950;2023-05-24T18:08:22;16.70;1.00
1137;DHT22;557;48.466;7.950;2023-05-24T18:11:10;16.60;1.00
1137;DHT22;557;48.466;7.950;2023-05-24T18:13:58;16.60;1.00
1137;DHT22;557;48.466;7.950;2023-05-24T18:16:48;16.50;1.00
1137;DHT22;557;48.466;7.950;2023-05-24T18:19:37;16.40;1.00
1137;DHT22;557;48.466;7.950;2023-05-24T18:22:24;16.30;1.00
1137;DHT22;557;48.466;7.950;2023-05-24T18:25:11;16.30;1.00
1137;DHT22;557;48.466;7.950;2023-05-24T18:27:59;16.20;1.00
1137;DHT22;557;48.466;7.950;2023-05-24T18:30:46;16.10;1.00
1137;DHT22;557;48.466;7.950;2023-05-24T18:33:33;16.10;1.00
1137;DHT22;557;48.466;7.950;2023-05-24T18:36:22;16.10;1.00
1137;DHT22;557;48.466;7.950;2023-05-24T18:39:09;16.10;1.00
1137;DHT22;557;48.466;7.950;2023-05-24T18:41:56;16.10;1.00
1137;DHT22;557;48.466;7.950;2023-05-24T18:44:44;15.90;1.00
1137;DHT22;557;48.466;7.950;2023-05-24T18:47:31;15.90;1.00
1137;DHT22;557;48.466;7.950;2023-05-24T18:50:19;15.70;1.00
1137;DHT22;557;48.466;7.950;2023-05-24T18:53:09;15.60;1.00